Overview Statistics Trail Chart Weather Telemetry Raw packets
 

This is the latest recevied weather packets stored in our database for station/object K7KAR-2. If no packets are shown the sender has not sent any weather packets the latest 10 day(s).

<< 1 2 3 4 5 6 7 >>
Time Temp. Humidity Pressure Rain* Wind** Luminosity Snow
1788604621 13.89° C 50% 1015.6 hPa 0 mm - 0 W/m² -
1788604317 13.89° C 49% 1015.5 hPa 0 mm - 0 W/m² -
1788604013 14.44° C 50% 1015.5 hPa 0 mm - 0 W/m² -
1788603709 14.44° C 50% 1015.4 hPa 0 mm - 0 W/m² -
1788603408 15° C 48% 1015.1 hPa 0 mm - 0 W/m² -
1788603106 14.44° C 47% 1015.1 hPa 0 mm - 0 W/m² -
1788602802 13.89° C 49% 1014.9 hPa 0 mm - 0 W/m² -
1788602497 13.33° C 50% 1014.9 hPa 0 mm - 0 W/m² -
1788602196 13.89° C 51% 1015.1 hPa 0 mm - 0 W/m² -
1788601891 14.44° C 48% 1015.1 hPa 0 mm - 0 W/m² -
1788601587 15° C 47% 1014.5 hPa 0 mm - 0 W/m² -
1788601286 15.56° C 45% 1014.7 hPa 0 mm - 0 W/m² -
1788600981 15° C 46% 1014.6 hPa 0 mm - 0 W/m² -
1788600677 15.56° C 45% 1014.6 hPa 0 mm - 0 W/m² -
1788600377 15.56° C 45% 1014.4 hPa 0 mm - 0 W/m² -
1788600073 15° C 46% 1014.4 hPa 0 mm - 0 W/m² -
1788599773 15.56° C 45% 1014.3 hPa 0 mm - 0 W/m² -
1788599466 15° C 46% 1014.7 hPa 0 mm - 0 W/m² -
1788599161 14.44° C 48% 1014.7 hPa 0 mm - 0 W/m² -
1788598856 14.44° C 48% 1014.7 hPa 0 mm - 0 W/m² -
1788598555 15.56° C 45% 1014.3 hPa 0 mm - 0 W/m² -
1788598251 16.11° C 43% 1014.4 hPa 0 mm - 0 W/m² -
1788597949 16.11° C 43% 1014.1 hPa 0 mm - 0 W/m² -
1788597645 16.67° C 42% 1014.4 hPa 0 mm - 0 W/m² -
1788597340 16.67° C 42% 1014.4 hPa 0 mm - 0 W/m² -

* Rain latest hour (hover to see other rain measurements)
** Current wind speed in m/s (hover to see current wind gust speed)